Gustaf Dalen, Sweden

3:16 PM CEST on August 29, 2014 (GMT +0200)
Skavsta | Change Station
CLOSE
Current Station
Airport
Location: Nykoping Skavsta,
Elevation: 141 ft
Nearby Weather Stations

Elev 141 ft 58.79 °N, 16.91 °E | Updated 26 minutes ago

Mostly Cloudy
Mostly Cloudy
64 °F
Feels Like 64 °F
N
4
Wind Variable Wind from NNW

Today
High -- | Low -- °F
--% Chance of Precip.
Yesterday
High -- | Low -- °F
Precip. -- in
5:41 AM 7:59 PM
Waxing Crescent, 14% visible
Pressure 29.98 in
Visibility 6.2 miles
Clouds Scattered Clouds 3700 ft
Few 5500 ft
Mostly Cloudy 6100 ft
Dew Point 50 °F
Humidity 59%
Rainfall 0.00 in
Snow Depth Not available.
UV 3 out of 12
Pollen Not available.
Air Quality Not available.
Flu Activity Not available.
METAR ESKN 291250Z 33003KT 290V020 9999 VCSH SCT037 FEW055CB BKN061 18/10 Q1015

More Conditions Fewer Conditions

Pressure 29.98 in
Visibility 6.2 miles
Clouds Scattered Clouds 3700 ft
Few 5500 ft
Mostly Cloudy 6100 ft
Dew Point 50 °F
Humidity 59%
Rainfall 0.00 in
Snow Depth Not available.
UV 3 out of 12
Pollen Not available.
Air Quality Not available.
Flu Activity Not available.
METAR ESKN 291250Z 33003KT 290V020 9999 VCSH SCT037 FEW055CB BKN061 18/10 Q1015

More Conditions Fewer Conditions

10-Day Weather Forecast

Almanac

Astronomy

Aug. 29, 2014 Rise Set
Actual Time 5:41 AM CEST 7:59 PM CEST
Civil Twilight 4:57 AM CEST 8:42 PM CEST
Nautical Twilight 4:00 AM CEST 9:38 PM CEST
Astronomical Twilight 2:47 AM CEST 10:50 PM CEST
Moon 10:11 AM CEST 8:45 PM CEST
Length of Visible Light 15h 44m
Length of Day
14h 17m
Tomorrow will be 5m 2s shorter.
Waxing Crescent, 14% of the Moon is Illuminated
Today
Waxing Crescent
Sep 2
First Quarter
Sep 8
Full
Sep 15
Last Quarter
Sep 24
New

Yesterday's Extremes

Country Highs Country Lows

Community

WunderPhotos

Upload Photos

1,748,226 photos uploaded!

Nearby

Snow Depth

Not available.

Earthquake Activity

City Distance Mag. Time & Date
No recent earthquake activity has been reported nearby.
Minimum magnitude displayed is 2.5.

Coastal Water Temperatures

Place Temperature
No Stations Reporting

Nearby Weather Stations